Flight Track Log - Related Links

Times and Time Zones

All times are in EDT time to prevent confusion due to time zone crossing. See the SWA315 flight status page for this flight to view local times or setup timezone preferences in your user account.


Time Position Orientation Groundspeed Altitude Reporting Facility
EDT Latitude Longitude Course Direction KTS MPH feet Rate Location/Type
Sat 08:09:37 AM 39.1833 -76.7667 288° West 215 247 3,700  Level Potomac TRACON
Sat 08:10:31 AM 39.2000 -76.8333 288° West 263 303 6,600 4,000 Climbing Potomac TRACON
Sat 08:11:31 AM 39.2167 -76.9333 282° West 286 329 11,300 4,450 Climbing Potomac TRACON
Sat 08:12:31 AM 39.2167 -77.0333 270° West 303 349 15,500 2,089 Climbing Potomac TRACON
Sat 08:13:46 AM 39.1825 -77.1608 251° West 336 387 16,000 662 Climbing Washington Center
Sat 08:14:47 AM 39.1292 -77.2506 233° Southwest 338 389 17,000 706 Climbing Washington Center
Sat 08:15:45 AM 39.1108 -77.3625 258° West 310 357 17,400 1,563 Climbing Washington Center
Sat 08:16:46 AM 39.0903 -77.4931 259° West 342 394 20,100 3,174 Climbing Washington Center
Sat 08:17:46 AM 39.0672 -77.6289 258° West 383 441 23,800 3,620 Climbing Washington Center
Sat 08:18:47 AM 39.0464 -77.7458 257° West 388 447 27,400 3,126 Climbing Washington Center
Sat 08:19:45 AM 39.0228 -77.8867 258° West 380 437 30,000 1,311 Climbing Washington Center
Sat 08:20:46 AM 38.9997 -78.0008 255° West 375 432 30,000  Level Washington Center
Sat 08:21:47 AM 38.9764 -78.1308 257° West 375 432 30,000  Level Washington Center
Sat 08:22:45 AM 38.9628 -78.2692 263° West 381 438 30,000  Level Washington Center
Sat 08:23:46 AM 38.9722 -78.4058 275° West 386 444 30,000  Level Washington Center
Sat 08:24:47 AM 38.9817 -78.5397 275° West 386 444 30,000  Level Washington Center
Sat 08:25:47 AM 38.9906 -78.6817 275° West 386 444 30,000  Level Washington Center
Sat 08:26:47 AM 38.9992 -78.8317 274° West 386 444 30,000  Level Washington Center
Sat 08:27:47 AM 39.0078 -78.9708 275° West 386 444 30,000  Level Washington Center
Sat 08:28:45 AM 39.0161 -79.1103 274° West 391 450 30,000  Level Washington Center
Sat 08:29:45 AM 39.0244 -79.2494 274° West 391 450 30,000  Level Washington Center
Sat 08:30:46 AM 39.0347 -79.3917 275° West 396 456 30,000  Level Washington Center
Sat 08:31:46 AM 39.0428 -79.5339 274° West 396 456 30,000  Level Washington Center
Sat 08:32:46 AM 39.0531 -79.6600 276° West 401 461 30,000  Level Washington Center
Sat 08:33:45 AM 39.0628 -79.8022 275° West 401 461 30,000  Level Washington Center
Sat 08:34:46 AM 39.0703 -79.9444 274° West 407 468 30,000  Level Washington Center
Sat 08:36:40 AM 39.0842 -80.2156 274° West 398 458 30,000  Level Indianapolis Center
Sat 08:37:41 AM 39.0928 -80.3594 274° West 400 460 30,000  Level Indianapolis Center
Sat 08:38:42 AM 39.0989 -80.5042 273° West 401 461 30,000  Level Indianapolis Center
Sat 08:39:44 AM 39.1072 -80.6497 274° West 404 465 30,000  Level Indianapolis Center
Sat 08:40:45 AM 39.1350 -80.8197 282° West 406 467 30,000  Level Indianapolis Center
Sat 08:41:46 AM 39.1758 -80.9539 291° West 406 467 30,000  Level Indianapolis Center
Sat 08:42:47 AM 39.2178 -81.0908 292° West 407 468 30,000  Level Indianapolis Center
Sat 08:43:49 AM 39.2589 -81.2281 291° West 408 470 30,000  Level Indianapolis Center
Sat 08:44:50 AM 39.3006 -81.3658 291° West 410 472 30,000 -1,377 Level Indianapolis Center
Sat 08:45:51 AM 39.3422 -81.5028 292° West 410 472 27,200 -2,634 Descending Indianapolis Center
Sat 08:46:53 AM 39.3808 -81.6358 291° West 404 465 24,600 -2,537 Descending Indianapolis Center
Sat 08:47:54 AM 39.4183 -81.7636 291° West 388 447 22,000 -2,656 Descending Indianapolis Center
Sat 08:48:55 AM 39.4622 -81.9114 291° West 373 429 19,200 -2,688 Descending Indianapolis Center
Sat 08:49:30 AM 39.4797 -81.9819 288° West 364 419 17,700 -2,613 Descending Indianapolis Center
Sat 08:49:57 AM 39.4972 -82.0322 294° West 366 421 16,500 -2,727 Descending Indianapolis Center
Sat 08:50:25 AM 39.5122 -82.0894 289° West 352 405 15,200 -2,262 Descending Indianapolis Center
Sat 08:50:58 AM 39.5264 -82.1347 292° West 352 405 14,200 -1,574 Descending Indianapolis Center
Sat 08:51:26 AM 39.5547 -82.2014 299° West 349 402 13,600 -968 Descending Indianapolis Center
Sat 08:52:00 AM 39.5769 -82.2436 304° West 353 406 13,200 -1,000 Descending Indianapolis Center
Sat 08:52:26 AM 39.6125 -82.3078 306° West 363 418 12,600 -1,180 Descending Indianapolis Center
Sat 08:53:01 AM 39.6464 -82.3675 306° West 354 407 12,000 -984 Descending Indianapolis Center
Sat 08:53:27 AM 39.6683 -82.4111 303° West 352 405 11,600 -1,279 Descending Indianapolis Center
Sat 08:54:02 AM 39.7008 -82.4692 306° West 348 400 10,700 -1,279 Descending Indianapolis Center
Sat 08:54:28 AM 39.7239 -82.5147 303° West 322 371 10,300 -677 Descending Indianapolis Center
Sat 08:55:04 AM 39.7489 -82.5572 307° West 310 357 10,000 -1,100 Descending Indianapolis Center
Sat 08:55:28 AM 39.7667 -82.5975 300° West 264 304 9,200 -1,574 Descending Indianapolis Center
Sat 08:56:05 AM 39.7900 -82.6372 307° West 276 318 8,400 -1,377 Descending Indianapolis Center
Sat 08:56:29 AM 39.8100 -82.6750 305° West 265 305 7,800 -1,355 Descending Indianapolis Center
Sat 08:57:07 AM 39.8322 -82.7147 306° West 269 310 7,000 -1,574 Descending Indianapolis Center
Sat 08:57:30 AM 39.8528 -82.7553 303° West 265 305 6,200 -984 Descending Indianapolis Center
Sat 08:58:08 AM 39.8733 -82.7942 305° West 269 310 6,000 -197 Descending Indianapolis Center
Sat 08:58:31 AM 39.8892 -82.8375 295° West 267 307 6,000 -97 Level Indianapolis Center
Sat 08:59:10 AM 39.8972 -82.8833 283° West 268 308 5,900  Descending Indianapolis Center
Sat 08:59:32 AM 39.9036 -82.9297 280° West 253 291 6,000 -393 Climbing Indianapolis Center
Sat 09:00:11 AM 39.9094 -82.9725 280° West 256 295 5,500 -900 Descending Indianapolis Center
Sat 09:00:32 AM 39.9167 -83.0136 283° West 234 269 5,100 -1,452 Descending Indianapolis Center
Sat 09:01:13 AM 39.9533 -83.0353 336° Northwest 228 262 4,000 -1,377 Descending Indianapolis Center
Sat 09:01:33 AM 39.9689 -83.0383 351° North 191 220 3,700 -1,065 Descending Indianapolis Center
Sat 09:02:15 AM 39.9961 -83.0239 22° Northeast 188 216 2,900 -1,180 Descending Indianapolis Center
Sat 09:02:34 AM 39.9994 -83.0050 77° East 141 162 2,500 -1,063 Descending Indianapolis Center
Sat 09:03:34 AM 39.9956 -82.9581 96° East 124 143 1,500 -808 Descending Indianapolis Center
Sat 09:04:18 AM 39.9944 -82.9300 93° East 132 152 1,100 -286 Descending Indianapolis Center
Sat 09:05:19 AM 39.9931 -82.8828 92° East 132 152 1,000 -98 Descending Indianapolis Center

Login

Don't have an account? Register now (free) for customized features, flight alerts, and more!